Time;durP1;ratioP1;P1;durP2;ratioP2;P2;SDS_P1;SDS_P2;PMS_P1;PMS_P2;Temp;Humidity;BMP_temperature;BMP_pressure;BME280_temperature;BME280_humidity;BME280_pressure;Samples;Min_cycle;Max_cycle;Signal;HPM_P1;HPM_P2
2023/06/09 00:00:18;;;;;;;0.10;0.10;;;;;;;;;;5041791;28;20058;-77
2023/06/09 00:02:47;;;;;;;0.47;0.32;;;;;;;;;;5044275;28;20046;-77
2023/06/09 00:05:15;;;;;;;0.85;0.30;;;;;;;;;;5042455;28;20810;-80
2023/06/09 00:07:42;;;;;;;0.10;0.10;;;;;;;;;;5041224;28;20057;-77
2023/06/09 00:10:09;;;;;;;0.20;0.15;;;;;;;;;;5042123;28;20041;-77
2023/06/09 00:12:35;;;;;;;0.10;0.10;;;;;;;;;;5044059;28;20107;-77
2023/06/09 00:15:01;;;;;;;0.10;0.10;;;;;;;;;;5043701;28;20069;-77
2023/06/09 00:17:29;;;;;;;0.90;0.68;;;;;;;;;;5040185;28;20068;-77
2023/06/09 00:20:02;;;;;;;0.38;0.30;;;;;;;;;;5040661;28;20088;-78
2023/06/09 00:22:31;;;;;;;0.10;0.10;;;;;;;;;;5042911;28;20091;-77
2023/06/09 00:24:57;;;;;;;0.30;0.30;;;;;;;;;;5043499;28;20132;-77
2023/06/09 00:27:24;;;;;;;0.10;0.10;;;;;;;;;;5041692;28;20054;-77
2023/06/09 00:29:51;;;;;;;0.10;0.10;;;;;;;;;;5041548;28;20053;-77
2023/06/09 00:32:17;;;;;;;0.10;0.10;;;;;;;;;;5044300;28;20053;-77
2023/06/09 00:34:44;;;;;;;0.10;0.10;;;;;;;;;;5042319;28;20050;-77
2023/06/09 00:37:10;;;;;;;0.30;0.30;;;;;;;;;;5040725;28;20525;-77
2023/06/09 00:39:36;;;;;;;0.20;0.20;;;;;;;;;;5042425;28;20058;-77
2023/06/09 00:42:03;;;;;;;0.20;0.20;;;;;;;;;;5042394;28;20081;-77
2023/06/09 00:44:29;;;;;;;0.10;0.10;;;;;;;;;;5040385;28;20503;-77
2023/06/09 00:46:56;;;;;;;0.15;0.15;;;;;;;;;;5041340;28;20645;-77
2023/06/09 00:49:22;;;;;;;0.43;0.43;;;;;;;;;;5042599;28;20103;-77
2023/06/09 00:51:49;;;;;;;0.40;0.30;;;;;;;;;;5041084;28;20115;-77
2023/06/09 00:54:17;;;;;;;0.10;0.10;;;;;;;;;;5043319;28;20470;-77
2023/06/09 00:56:44;;;;;;;0.20;0.20;;;;;;;;;;5042582;28;20213;-77
2023/06/09 00:59:13;;;;;;;0.10;0.10;;;;;;;;;;5042001;28;20085;-76
2023/06/09 01:01:43;;;;;;;0.10;0.10;;;;;;;;;;5041686;28;20058;-77
2023/06/09 01:04:09;;;;;;;0.10;0.10;;;;;;;;;;5039526;28;20127;-77
2023/06/09 01:06:46;;;;;;;0.10;0.10;;;;;;;;;;5040086;28;20840;-77
2023/06/09 01:09:26;;;;;;;0.10;0.10;;;;;;;;;;5041569;28;20049;-77
2023/06/09 01:12:10;;;;;;;0.10;0.10;;;;;;;;;;5041107;28;20107;-77
2023/06/09 01:14:40;;;;;;;0.10;0.10;;;;;;;;;;5041680;28;20061;-77
2023/06/09 01:17:11;;;;;;;0.10;0.10;;;;;;;;;;5042756;28;20552;-77
2023/06/09 01:19:41;;;;;;;0.10;0.10;;;;;;;;;;5042626;28;20509;-77
2023/06/09 01:22:21;;;;;;;0.30;0.20;;;;;;;;;;5042166;28;20455;-76
2023/06/09 01:24:58;;;;;;;0.10;0.10;;;;;;;;;;5041083;28;20045;-77
2023/06/09 01:27:25;;;;;;;0.10;0.10;;;;;;;;;;5037857;28;20143;-78
2023/06/09 01:29:55;;;;;;;0.10;0.10;;;;;;;;;;5042642;28;20045;-77
2023/06/09 01:32:23;;;;;;;0.10;0.10;;;;;;;;;;5040895;28;20054;-77
2023/06/09 01:34:50;;;;;;;0.10;0.10;;;;;;;;;;5042790;28;20061;-77
2023/06/09 01:37:17;;;;;;;0.10;0.10;;;;;;;;;;5040945;28;20552;-77
2023/06/09 01:39:43;;;;;;;0.13;0.13;;;;;;;;;;5043567;28;20062;-77
2023/06/09 01:42:10;;;;;;;0.13;0.13;;;;;;;;;;5039482;28;20077;-77
2023/06/09 01:44:36;;;;;;;0.10;0.10;;;;;;;;;;5041828;28;20064;-77
2023/06/09 01:47:03;;;;;;;0.10;0.10;;;;;;;;;;5041296;28;20705;-77
2023/06/09 01:49:33;;;;;;;0.10;0.10;;;;;;;;;;5042759;28;20579;-77
2023/06/09 01:52:02;;;;;;;0.10;0.10;;;;;;;;;;5041880;28;20057;-77
2023/06/09 01:54:34;;;;;;;0.10;0.10;;;;;;;;;;5036189;28;20216;-77
2023/06/09 01:57:19;;;;;;;0.10;0.10;;;;;;;;;;5041917;28;20057;-77
2023/06/09 01:59:50;;;;;;;0.10;0.10;;;;;;;;;;5042573;28;20104;-77
2023/06/09 02:02:18;;;;;;;0.10;0.10;;;;;;;;;;5038037;28;20050;-77
2023/06/09 02:04:45;;;;;;;0.10;0.10;;;;;;;;;;5044293;28;20589;-78
2023/06/09 02:07:16;;;;;;;0.20;0.20;;;;;;;;;;5043023;28;20061;-77
2023/06/09 02:09:44;;;;;;;0.10;0.10;;;;;;;;;;5046165;28;20122;-77
2023/06/09 02:12:10;;;;;;;0.10;0.10;;;;;;;;;;5044006;28;20535;-77
2023/06/09 02:14:39;;;;;;;0.10;0.10;;;;;;;;;;5045689;28;20103;-77
2023/06/09 02:17:08;;;;;;;0.10;0.10;;;;;;;;;;5044831;28;20319;-77
2023/06/09 02:19:37;;;;;;;0.10;0.10;;;;;;;;;;5045581;28;20160;-77
2023/06/09 02:22:07;;;;;;;0.10;0.10;;;;;;;;;;5044192;28;20061;-77
2023/06/09 02:24:34;;;;;;;0.10;0.10;;;;;;;;;;5042214;28;20053;-77
2023/06/09 02:27:02;;;;;;;0.10;0.10;;;;;;;;;;5041942;28;20615;-77
2023/06/09 02:29:29;;;;;;;0.10;0.10;;;;;;;;;;5045380;28;20065;-77
2023/06/09 02:31:58;;;;;;;0.10;0.10;;;;;;;;;;5045647;28;20057;-77
2023/06/09 02:34:25;;;;;;;0.10;0.10;;;;;;;;;;5045614;28;20053;-77
2023/06/09 02:36:55;;;;;;;0.10;0.10;;;;;;;;;;5042672;28;20103;-77
2023/06/09 02:39:22;;;;;;;0.10;0.10;;;;;;;;;;5045152;28;20140;-77
2023/06/09 02:41:48;;;;;;;0.10;0.10;;;;;;;;;;5044540;28;20220;-77
2023/06/09 02:44:15;;;;;;;0.10;0.10;;;;;;;;;;5045822;28;20092;-77
2023/06/09 02:46:43;;;;;;;0.10;0.10;;;;;;;;;;5037454;28;20886;-77
2023/06/09 02:49:10;;;;;;;0.25;0.17;;;;;;;;;;5043035;28;20889;-77
2023/06/09 02:51:37;;;;;;;0.10;0.10;;;;;;;;;;5044115;28;20586;-76
2023/06/09 02:54:04;;;;;;;0.10;0.10;;;;;;;;;;5042722;28;20149;-77
2023/06/09 02:56:30;;;;;;;0.10;0.10;;;;;;;;;;5042809;28;20611;-76
2023/06/09 02:58:57;;;;;;;0.45;0.38;;;;;;;;;;5044350;28;20053;-75
2023/06/09 03:01:24;;;;;;;0.10;0.10;;;;;;;;;;5043956;28;20053;-75
2023/06/09 03:03:50;;;;;;;0.10;0.10;;;;;;;;;;5045021;28;20500;-75
2023/06/09 03:06:17;;;;;;;0.10;0.10;;;;;;;;;;5042706;28;20292;-76
2023/06/09 03:08:43;;;;;;;0.15;0.15;;;;;;;;;;5043063;28;20188;-76
2023/06/09 03:11:10;;;;;;;0.10;0.10;;;;;;;;;;5044511;28;20081;-76
2023/06/09 03:13:36;;;;;;;0.10;0.10;;;;;;;;;;5043290;28;20085;-76
2023/06/09 03:16:03;;;;;;;0.30;0.30;;;;;;;;;;5041912;28;20054;-76
2023/06/09 03:18:29;;;;;;;0.10;0.10;;;;;;;;;;5044861;28;20057;-76
2023/06/09 03:21:04;;;;;;;0.10;0.10;;;;;;;;;;5042977;28;20137;-76
2023/06/09 03:23:34;;;;;;;0.20;0.20;;;;;;;;;;5041665;28;20244;-76
2023/06/09 03:26:00;;;;;;;0.10;0.10;;;;;;;;;;5041771;28;20371;-76
2023/06/09 03:28:27;;;;;;;0.20;0.20;;;;;;;;;;5043672;28;20164;-76
2023/06/09 03:30:54;;;;;;;0.13;0.13;;;;;;;;;;5038325;28;20057;-76
2023/06/09 03:33:21;;;;;;;0.30;0.30;;;;;;;;;;5044249;28;20054;-76
2023/06/09 03:35:48;;;;;;;0.10;0.10;;;;;;;;;;5042594;28;20502;-76
2023/06/09 03:38:14;;;;;;;0.10;0.10;;;;;;;;;;5038501;28;20057;-76
2023/06/09 03:40:40;;;;;;;0.10;0.10;;;;;;;;;;5043714;28;20080;-76
2023/06/09 03:43:07;;;;;;;0.20;0.20;;;;;;;;;;5044294;28;20405;-76
2023/06/09 03:45:34;;;;;;;0.10;0.10;;;;;;;;;;5044530;28;20139;-77
2023/06/09 03:48:01;;;;;;;0.10;0.10;;;;;;;;;;5042918;28;20111;-76
2023/06/09 03:50:27;;;;;;;0.10;0.10;;;;;;;;;;5044408;28;20054;-76
2023/06/09 03:52:53;;;;;;;0.10;0.10;;;;;;;;;;5042807;28;20057;-76
2023/06/09 03:55:22;;;;;;;0.40;0.40;;;;;;;;;;5044221;28;20219;-76
2023/06/09 03:57:48;;;;;;;0.30;0.30;;;;;;;;;;5040843;28;20500;-76
2023/06/09 04:00:16;;;;;;;0.52;0.20;;;;;;;;;;5043858;28;20554;-76
2023/06/09 04:02:42;;;;;;;0.10;0.10;;;;;;;;;;5042211;28;20072;-76
2023/06/09 04:05:09;;;;;;;0.10;0.10;;;;;;;;;;5043902;28;20093;-76
2023/06/09 04:07:35;;;;;;;0.10;0.10;;;;;;;;;;5040281;28;20096;-76
2023/06/09 04:10:02;;;;;;;0.10;0.10;;;;;;;;;;5042618;28;20125;-76
2023/06/09 04:12:29;;;;;;;0.10;0.10;;;;;;;;;;5043459;28;20554;-77
2023/06/09 04:14:55;;;;;;;0.10;0.10;;;;;;;;;;5043914;28;20554;-76
2023/06/09 04:17:22;;;;;;;0.10;0.10;;;;;;;;;;5040722;28;20093;-76
2023/06/09 04:19:48;;;;;;;0.15;0.15;;;;;;;;;;5044001;28;20087;-76
2023/06/09 04:22:15;;;;;;;0.10;0.10;;;;;;;;;;5041656;28;20056;-76
2023/06/09 04:24:42;;;;;;;0.60;0.60;;;;;;;;;;5040685;28;20155;-76
2023/06/09 04:27:09;;;;;;;0.10;0.10;;;;;;;;;;5041963;28;20525;-76
2023/06/09 04:29:35;;;;;;;0.10;0.10;;;;;;;;;;5040194;28;20427;-76
2023/06/09 04:32:02;;;;;;;0.57;0.57;;;;;;;;;;5043041;28;20168;-76
2023/06/09 04:34:38;;;;;;;0.10;0.10;;;;;;;;;;5043121;28;20559;-76
2023/06/09 04:37:07;;;;;;;0.10;0.10;;;;;;;;;;5040423;28;20095;-76
2023/06/09 04:39:34;;;;;;;0.10;0.10;;;;;;;;;;5042697;28;20565;-76
2023/06/09 04:42:03;;;;;;;0.10;0.10;;;;;;;;;;5042586;28;20139;-77
2023/06/09 04:44:32;;;;;;;0.10;0.10;;;;;;;;;;5040759;28;20057;-77
2023/06/09 04:46:59;;;;;;;0.10;0.10;;;;;;;;;;5040214;28;20467;-77
2023/06/09 04:49:26;;;;;;;0.20;0.20;;;;;;;;;;5041104;28;20531;-77
2023/06/09 04:51:54;;;;;;;0.10;0.10;;;;;;;;;;5042939;28;20057;-77
2023/06/09 04:54:25;;;;;;;0.10;0.10;;;;;;;;;;5042590;28;20053;-77
2023/06/09 04:56:57;;;;;;;;;;;;;;;;;;5039765;28;20207;-78
2023/06/09 04:59:24;;;;;;;0.03;0.03;;;;;;;;;;5039194;28;47735;-78
2023/06/09 05:01:52;;;;;;;0.40;0.40;;;;;;;;;;5042369;28;20553;-77
2023/06/09 05:04:19;;;;;;;0.47;0.47;;;;;;;;;;5042492;28;20476;-77
2023/06/09 05:06:45;;;;;;;0.10;0.10;;;;;;;;;;5040119;28;20053;-77
2023/06/09 05:09:12;;;;;;;0.10;0.10;;;;;;;;;;5038354;28;20059;-77
2023/06/09 05:11:38;;;;;;;0.10;0.10;;;;;;;;;;5042400;28;21147;-77
2023/06/09 05:14:05;;;;;;;0.10;0.10;;;;;;;;;;5042798;28;20168;-77
2023/06/09 05:16:33;;;;;;;0.25;0.25;;;;;;;;;;5040757;28;20512;-77
2023/06/09 05:19:00;;;;;;;0.10;0.10;;;;;;;;;;5042213;28;20093;-77
2023/06/09 05:21:26;;;;;;;0.10;0.10;;;;;;;;;;5040603;28;20531;-77
2023/06/09 05:23:53;;;;;;;0.10;0.10;;;;;;;;;;5042406;28;20578;-77
2023/06/09 05:26:19;;;;;;;0.17;0.17;;;;;;;;;;5039881;28;20053;-77
2023/06/09 05:28:46;;;;;;;0.10;0.10;;;;;;;;;;5031801;28;20456;-77
2023/06/09 05:31:13;;;;;;;0.10;0.10;;;;;;;;;;5039151;28;20124;-77
2023/06/09 05:33:39;;;;;;;0.10;0.10;;;;;;;;;;5042026;28;20049;-77
2023/06/09 05:36:08;;;;;;;0.30;0.30;;;;;;;;;;5041542;28;20047;-77
2023/06/09 05:38:34;;;;;;;0.10;0.10;;;;;;;;;;5042484;28;20138;-77
2023/06/09 05:41:01;;;;;;;0.20;0.20;;;;;;;;;;5046367;28;20058;-77
2023/06/09 05:43:28;;;;;;;0.10;0.10;;;;;;;;;;5048904;28;20107;-77
2023/06/09 05:45:55;;;;;;;0.10;0.10;;;;;;;;;;5048661;28;20077;-77
2023/06/09 05:48:21;;;;;;;0.13;0.13;;;;;;;;;;5044472;28;20056;-77
2023/06/09 05:50:48;;;;;;;1.60;0.70;;;;;;;;;;5047827;28;20065;-77
2023/06/09 05:53:17;;;;;;;0.35;0.35;;;;;;;;;;5047890;28;20454;-76
2023/06/09 05:55:47;;;;;;;0.20;0.20;;;;;;;;;;5045384;28;20084;-77
2023/06/09 05:58:14;;;;;;;0.10;0.10;;;;;;;;;;5047392;28;20057;-76
2023/06/09 06:00:41;;;;;;;0.30;0.30;;;;;;;;;;5045495;28;20260;-76
2023/06/09 06:03:10;;;;;;;0.40;0.40;;;;;;;;;;5045804;28;20064;-77
2023/06/09 06:05:37;;;;;;;0.20;0.20;;;;;;;;;;5040881;28;20546;-77
2023/06/09 06:08:06;;;;;;;0.10;0.10;;;;;;;;;;5047228;28;20045;-77
2023/06/09 06:10:32;;;;;;;1.00;0.65;;;;;;;;;;5047920;28;20174;-76
2023/06/09 06:13:02;;;;;;;0.20;0.20;;;;;;;;;;5043856;28;20565;-76
2023/06/09 06:15:28;;;;;;;0.80;0.80;;;;;;;;;;5047976;28;20128;-76
2023/06/09 06:17:55;;;;;;;0.13;0.13;;;;;;;;;;5048181;28;20064;-77
2023/06/09 06:20:21;;;;;;;1.67;0.35;;;;;;;;;;5047845;28;20486;-77
2023/06/09 06:22:48;;;;;;;0.57;0.30;;;;;;;;;;5047761;28;20511;-77
2023/06/09 06:25:15;;;;;;;0.30;0.30;;;;;;;;;;5049157;28;20060;-77
2023/06/09 06:27:41;;;;;;;0.20;0.20;;;;;;;;;;5050805;28;20058;-77
2023/06/09 06:30:12;;;;;;;0.40;0.40;;;;;;;;;;5050823;28;20054;-77
2023/06/09 06:32:47;;;;;;;1.30;0.30;;;;;;;;;;5047585;28;20053;-77
2023/06/09 06:35:20;;;;;;;0.20;0.20;;;;;;;;;;5050050;28;20061;-77
2023/06/09 06:37:46;;;;;;;10.13;1.02;;;;;;;;;;5048153;28;20080;-77
2023/06/09 06:40:13;;;;;;;0.70;0.70;;;;;;;;;;5046817;28;20137;-77
2023/06/09 06:42:40;;;;;;;0.20;0.20;;;;;;;;;;5047663;28;20057;-78
2023/06/09 06:45:06;;;;;;;0.40;0.35;;;;;;;;;;5049487;28;20053;-78
2023/06/09 06:47:33;;;;;;;0.75;0.55;;;;;;;;;;5048797;28;20601;-77
2023/06/09 06:50:00;;;;;;;1.00;0.50;;;;;;;;;;5046089;28;20053;-77
2023/06/09 06:52:26;;;;;;;0.47;0.40;;;;;;;;;;5045022;28;20113;-77
2023/06/09 06:54:53;;;;;;;0.45;0.30;;;;;;;;;;5043770;28;20141;-77
2023/06/09 06:57:19;;;;;;;0.52;0.47;;;;;;;;;;5047254;28;20037;-77
2023/06/09 06:59:46;;;;;;;0.45;0.45;;;;;;;;;;5046171;28;20058;-77
2023/06/09 07:02:12;;;;;;;3.70;0.60;;;;;;;;;;5043453;28;20049;-77
2023/06/09 07:04:38;;;;;;;0.57;0.32;;;;;;;;;;5042923;28;20155;-76
2023/06/09 07:07:05;;;;;;;1.27;0.60;;;;;;;;;;5042479;28;20124;-76
2023/06/09 07:09:31;;;;;;;0.40;0.40;;;;;;;;;;5043110;28;20419;-76
2023/06/09 07:11:58;;;;;;;0.20;0.20;;;;;;;;;;5041641;28;20125;-76
2023/06/09 07:14:24;;;;;;;0.30;0.30;;;;;;;;;;5042269;28;20530;-76
2023/06/09 07:16:50;;;;;;;0.15;0.15;;;;;;;;;;5040346;28;20056;-76
2023/06/09 07:19:17;;;;;;;0.77;0.25;;;;;;;;;;5040960;28;20511;-76
2023/06/09 07:21:43;;;;;;;0.30;0.30;;;;;;;;;;5039757;28;20547;-76
2023/06/09 07:24:10;;;;;;;1.10;0.82;;;;;;;;;;5037267;28;20084;-76
2023/06/09 07:26:37;;;;;;;1.17;0.52;;;;;;;;;;5034072;28;20058;-76
2023/06/09 07:29:03;;;;;;;0.77;0.40;;;;;;;;;;5032736;28;20072;-77
2023/06/09 07:31:30;;;;;;;0.65;0.30;;;;;;;;;;5039197;28;20053;-76
2023/06/09 07:33:57;;;;;;;0.20;0.20;;;;;;;;;;5040495;28;20112;-76
2023/06/09 07:36:24;;;;;;;0.55;0.38;;;;;;;;;;5044426;28;20227;-76
2023/06/09 07:38:50;;;;;;;0.80;0.25;;;;;;;;;;5042472;28;20061;-76
2023/06/09 07:41:17;;;;;;;0.60;0.40;;;;;;;;;;5042529;28;20095;-76
2023/06/09 07:43:43;;;;;;;3.00;0.63;;;;;;;;;;5039348;28;20111;-75
2023/06/09 07:46:11;;;;;;;0.20;0.20;;;;;;;;;;5040400;28;20053;-75
2023/06/09 07:48:38;;;;;;;2.15;0.40;;;;;;;;;;5041676;28;20239;-75
2023/06/09 07:51:05;;;;;;;0.47;0.38;;;;;;;;;;5042337;28;20843;-75
2023/06/09 07:53:31;;;;;;;0.30;0.30;;;;;;;;;;5044184;28;20089;-75
2023/06/09 07:55:58;;;;;;;1.00;0.73;;;;;;;;;;5041090;28;20064;-75
2023/06/09 07:58:24;;;;;;;0.88;0.47;;;;;;;;;;5042114;28;20057;-75
2023/06/09 08:00:51;;;;;;;0.40;0.40;;;;;;;;;;5044252;28;20061;-75
2023/06/09 08:03:20;;;;;;;1.38;0.52;;;;;;;;;;5043290;28;20050;-75
2023/06/09 08:05:47;;;;;;;1.63;0.60;;;;;;;;;;5041341;28;20108;-75
2023/06/09 08:08:16;;;;;;;0.20;0.20;;;;;;;;;;5044130;28;20365;-75
2023/06/09 08:10:43;;;;;;;0.20;0.20;;;;;;;;;;5043957;28;20057;-75
2023/06/09 08:13:13;;;;;;;1.83;1.05;;;;;;;;;;5044058;28;20049;-75
2023/06/09 08:15:40;;;;;;;0.20;0.20;;;;;;;;;;5037448;28;20058;-76
2023/06/09 08:18:06;;;;;;;0.30;0.30;;;;;;;;;;5043440;28;20535;-75
2023/06/09 08:20:33;;;;;;;1.10;0.55;;;;;;;;;;5042040;28;20053;-75
2023/06/09 08:22:59;;;;;;;0.75;0.45;;;;;;;;;;5041298;28;20140;-75
2023/06/09 08:25:26;;;;;;;0.85;0.60;;;;;;;;;;5039291;28;20077;-75
2023/06/09 08:27:52;;;;;;;0.40;0.40;;;;;;;;;;5043658;28;20054;-76
2023/06/09 08:30:18;;;;;;;0.63;0.40;;;;;;;;;;5044054;28;20602;-76
2023/06/09 08:32:46;;;;;;;0.73;0.30;;;;;;;;;;5043911;28;20057;-76
2023/06/09 08:35:13;;;;;;;0.98;0.77;;;;;;;;;;5043519;28;20104;-76
2023/06/09 08:37:39;;;;;;;0.20;0.20;;;;;;;;;;5047748;28;20492;-76
2023/06/09 08:40:08;;;;;;;0.35;0.30;;;;;;;;;;5048145;28;20157;-76
2023/06/09 08:42:36;;;;;;;0.40;0.40;;;;;;;;;;5047595;28;20072;-76
2023/06/09 08:45:06;;;;;;;1.05;0.52;;;;;;;;;;5045122;28;20055;-76
2023/06/09 08:47:35;;;;;;;1.42;0.70;;;;;;;;;;5049228;28;20160;-76
2023/06/09 08:50:03;;;;;;;0.50;0.30;;;;;;;;;;5049369;28;20057;-76
2023/06/09 08:52:30;;;;;;;0.30;0.30;;;;;;;;;;5050640;28;20057;-76
2023/06/09 08:54:57;;;;;;;0.30;0.30;;;;;;;;;;5046734;28;20558;-76
2023/06/09 08:57:24;;;;;;;0.30;0.30;;;;;;;;;;5042892;28;20058;-76
2023/06/09 08:59:52;;;;;;;0.55;0.50;;;;;;;;;;5043929;28;20107;-76
2023/06/09 09:02:18;;;;;;;0.38;0.35;;;;;;;;;;5042435;28;20080;-76
2023/06/09 09:04:45;;;;;;;0.60;0.47;;;;;;;;;;5044405;28;20064;-76
2023/06/09 09:07:12;;;;;;;0.80;0.40;;;;;;;;;;5044471;28;20488;-76
2023/06/09 09:09:39;;;;;;;0.70;0.60;;;;;;;;;;5042707;28;20108;-76
2023/06/09 09:12:09;;;;;;;0.75;0.45;;;;;;;;;;5042686;28;20053;-76
2023/06/09 09:14:39;;;;;;;0.30;0.30;;;;;;;;;;5044678;28;20053;-76
2023/06/09 09:17:11;;;;;;;0.30;0.30;;;;;;;;;;5044266;28;20056;-75
2023/06/09 09:19:42;;;;;;;1.20;0.68;;;;;;;;;;5042358;28;20577;-76
2023/06/09 09:22:09;;;;;;;0.50;0.47;;;;;;;;;;5040489;28;20058;-76
2023/06/09 09:24:35;;;;;;;0.68;0.50;;;;;;;;;;5042381;28;20057;-76
2023/06/09 09:27:11;;;;;;;0.30;0.30;;;;;;;;;;5041424;28;20140;-76
2023/06/09 09:29:39;;;;;;;0.57;0.45;;;;;;;;;;5038570;28;20056;-76
2023/06/09 09:32:06;;;;;;;0.57;0.57;;;;;;;;;;5042959;28;20103;-76
2023/06/09 09:34:32;;;;;;;0.50;0.50;;;;;;;;;;5042559;28;20411;-76
2023/06/09 09:37:00;;;;;;;0.73;0.60;;;;;;;;;;5042513;28;20049;-76
2023/06/09 09:39:26;;;;;;;0.43;0.43;;;;;;;;;;5040502;28;20116;-76
2023/06/09 09:42:02;;;;;;;0.57;0.40;;;;;;;;;;5041218;28;20137;-75
2023/06/09 09:44:42;;;;;;;0.70;0.70;;;;;;;;;;5042703;28;20080;-76
2023/06/09 09:47:12;;;;;;;1.05;0.85;;;;;;;;;;5042128;28;20054;-76
2023/06/09 09:49:48;;;;;;;1.05;0.65;;;;;;;;;;5039192;28;20108;-76
2023/06/09 09:52:21;;;;;;;0.43;0.40;;;;;;;;;;5043086;28;20080;-76
2023/06/09 09:54:50;;;;;;;1.10;0.60;;;;;;;;;;5041823;28;20049;-76
2023/06/09 09:57:17;;;;;;;0.65;0.50;;;;;;;;;;5043588;28;20157;-76
2023/06/09 09:59:44;;;;;;;1.75;1.13;;;;;;;;;;5040500;28;20572;-76
2023/06/09 10:02:13;;;;;;;0.93;0.60;;;;;;;;;;5043137;28;20096;-76
2023/06/09 10:04:40;;;;;;;0.45;0.45;;;;;;;;;;5042115;28;20057;-76
2023/06/09 10:07:06;;;;;;;1.38;0.88;;;;;;;;;;5042588;28;20111;-73
2023/06/09 10:09:34;;;;;;;0.68;0.60;;;;;;;;;;5040781;28;20054;-74
2023/06/09 10:12:00;;;;;;;0.95;0.70;;;;;;;;;;5042359;28;20516;-74
2023/06/09 10:14:29;;;;;;;2.58;1.45;;;;;;;;;;5042378;28;20049;-74
2023/06/09 10:16:57;;;;;;;0.55;0.50;;;;;;;;;;5041370;28;20244;-74
2023/06/09 10:19:24;;;;;;;0.75;0.60;;;;;;;;;;5041955;28;20057;-74
2023/06/09 10:21:52;;;;;;;1.33;0.88;;;;;;;;;;5040185;28;20522;-74
2023/06/09 10:24:19;;;;;;;0.63;0.50;;;;;;;;;;5042247;28;20803;-74
2023/06/09 10:26:47;;;;;;;1.02;0.68;;;;;;;;;;5046374;28;20056;-74
2023/06/09 10:29:15;;;;;;;0.80;0.47;;;;;;;;;;5047670;28;20089;-75
2023/06/09 10:31:44;;;;;;;0.47;0.47;;;;;;;;;;5044013;28;20444;-77
2023/06/09 10:34:13;;;;;;;0.50;0.50;;;;;;;;;;5046569;28;20233;-76
2023/06/09 10:36:41;;;;;;;0.40;0.40;;;;;;;;;;5045685;28;20205;-76
2023/06/09 10:39:18;;;;;;;1.25;0.90;;;;;;;;;;5026492;28;20085;-75
2023/06/09 10:41:53;;;;;;;0.98;0.60;;;;;;;;;;5043539;28;20049;-75
2023/06/09 10:44:25;;;;;;;0.52;0.50;;;;;;;;;;5047320;28;20085;-75
2023/06/09 10:46:53;;;;;;;0.90;0.60;;;;;;;;;;5043682;28;20582;-76
2023/06/09 10:49:26;;;;;;;1.30;0.55;;;;;;;;;;5045211;28;20759;-75
2023/06/09 10:51:53;;;;;;;0.82;0.50;;;;;;;;;;5044247;28;20053;-76
2023/06/09 10:54:20;;;;;;;0.65;0.50;;;;;;;;;;5046459;28;20060;-76
2023/06/09 10:57:06;;;;;;;0.95;0.77;;;;;;;;;;5043267;28;20053;-75
2023/06/09 10:59:36;;;;;;;0.93;0.60;;;;;;;;;;5026626;28;20054;-75
2023/06/09 11:02:05;;;;;;;0.90;0.68;;;;;;;;;;5031903;28;20054;-75
2023/06/09 11:04:44;;;;;;;1.10;0.68;;;;;;;;;;5039273;28;20062;-76
2023/06/09 11:07:14;;;;;;;1.13;0.75;;;;;;;;;;5032399;28;20140;-76
2023/06/09 11:10:01;;;;;;;0.60;0.60;;;;;;;;;;5041757;28;20264;-76
2023/06/09 11:12:28;;;;;;;0.80;0.50;;;;;;;;;;5041676;28;20085;-76
2023/06/09 11:14:56;;;;;;;0.68;0.50;;;;;;;;;;5041410;28;20065;-76
2023/06/09 11:17:28;;;;;;;1.13;0.77;;;;;;;;;;5044711;28;20053;-76
2023/06/09 11:20:14;;;;;;;0.88;0.50;;;;;;;;;;5041396;28;20280;-76
2023/06/09 11:22:41;;;;;;;0.98;0.80;;;;;;;;;;5037904;28;20053;-76
2023/06/09 11:25:24;;;;;;;1.17;0.82;;;;;;;;;;5043150;28;20507;-76
2023/06/09 11:27:54;;;;;;;0.60;0.40;;;;;;;;;;5040977;28;20084;-76
2023/06/09 11:30:21;;;;;;;0.98;0.70;;;;;;;;;;5039267;28;20057;-76
2023/06/09 11:32:49;;;;;;;0.77;0.57;;;;;;;;;;5045317;28;20050;-75
2023/06/09 11:35:31;;;;;;;1.48;1.02;;;;;;;;;;5041008;28;20050;-75
2023/06/09 11:37:57;;;;;;;1.10;0.60;;;;;;;;;;5044208;28;20053;-76
2023/06/09 11:40:28;;;;;;;0.82;0.50;;;;;;;;;;5040383;28;20144;-76
2023/06/09 11:42:55;;;;;;;1.25;0.70;;;;;;;;;;5038222;28;20064;-75
2023/06/09 11:45:25;;;;;;;1.40;0.77;;;;;;;;;;5034653;28;20053;-76
2023/06/09 11:47:57;;;;;;;0.80;0.70;;;;;;;;;;5043347;28;20065;-76
2023/06/09 11:50:24;;;;;;;2.17;0.80;;;;;;;;;;5043088;28;20060;-76
2023/06/09 11:53:04;;;;;;;1.17;0.60;;;;;;;;;;5041110;28;20625;-76
2023/06/09 11:55:31;;;;;;;0.52;0.50;;;;;;;;;;5036603;28;20506;-75
2023/06/09 11:57:58;;;;;;;0.50;0.43;;;;;;;;;;5042489;28;20053;-75
2023/06/09 12:00:26;;;;;;;0.40;0.40;;;;;;;;;;5038573;28;20653;-75
2023/06/09 12:02:53;;;;;;;0.90;0.60;;;;;;;;;;5042368;28;20078;-75
2023/06/09 12:05:19;;;;;;;0.82;0.55;;;;;;;;;;5041317;28;20475;-75
2023/06/09 12:07:47;;;;;;;0.70;0.70;;;;;;;;;;5043254;28;20148;-75
2023/06/09 12:10:16;;;;;;;0.75;0.60;;;;;;;;;;5040560;28;20512;-75
2023/06/09 12:12:44;;;;;;;0.73;0.50;;;;;;;;;;5042118;28;20053;-75
2023/06/09 12:15:11;;;;;;;0.52;0.50;;;;;;;;;;5039930;28;20049;-76
2023/06/09 12:17:38;;;;;;;0.77;0.55;;;;;;;;;;5043539;28;20182;-75
2023/06/09 12:20:27;;;;;;;0.63;0.63;;;;;;;;;;5041480;28;20058;-76
2023/06/09 12:22:54;;;;;;;0.98;0.55;;;;;;;;;;5036124;28;20081;-76
2023/06/09 12:25:28;;;;;;;0.80;0.57;;;;;;;;;;5034824;28;20061;-75
2023/06/09 12:27:55;;;;;;;0.70;0.70;;;;;;;;;;5031036;28;20064;-76
2023/06/09 12:30:35;;;;;;;0.75;0.50;;;;;;;;;;5035507;28;20558;-76
2023/06/09 12:33:05;;;;;;;0.50;0.45;;;;;;;;;;5042090;28;20056;-76
2023/06/09 12:35:36;;;;;;;1.45;0.73;;;;;;;;;;5044633;28;20080;-76
2023/06/09 12:38:09;;;;;;;0.82;0.68;;;;;;;;;;5044345;28;20071;-76
2023/06/09 12:41:02;;;;;;;0.30;0.30;;;;;;;;;;5044382;28;20057;-76
2023/06/09 12:43:41;;;;;;;0.88;0.75;;;;;;;;;;5038028;28;20141;-76
2023/06/09 12:46:08;;;;;;;0.98;0.70;;;;;;;;;;5042955;28;20521;-76
2023/06/09 12:48:53;;;;;;;0.55;0.50;;;;;;;;;;5043841;28;20057;-76
2023/06/09 12:51:20;;;;;;;0.50;0.50;;;;;;;;;;5043000;28;20053;-75
2023/06/09 12:53:46;;;;;;;2.35;0.90;;;;;;;;;;5040963;28;20058;-76
2023/06/09 12:56:12;;;;;;;0.65;0.57;;;;;;;;;;5043495;28;20084;-75
2023/06/09 12:58:39;;;;;;;1.15;0.60;;;;;;;;;;5044264;28;20559;-76
2023/06/09 13:01:05;;;;;;;1.00;0.65;;;;;;;;;;5044850;28;20581;-76
2023/06/09 13:03:32;;;;;;;1.58;0.85;;;;;;;;;;5038045;28;20451;-75
2023/06/09 13:08:34;;;;;;;0.50;0.50;;;;;;;;;;5063430;22;20739;-75
2023/06/09 13:11:00;;;;;;;0.52;0.47;;;;;;;;;;5004269;28;20056;-75
2023/06/09 13:13:27;;;;;;;0.65;0.50;;;;;;;;;;5016784;28;20061;-75
2023/06/09 13:15:56;;;;;;;0.73;0.60;;;;;;;;;;5020387;28;20137;-75
2023/06/09 13:18:23;;;;;;;1.27;0.82;;;;;;;;;;5003522;28;20058;-75
2023/06/09 13:20:50;;;;;;;0.45;0.45;;;;;;;;;;5003179;28;20060;-75
2023/06/09 13:23:16;;;;;;;0.98;0.60;;;;;;;;;;5009813;28;20133;-75
2023/06/09 13:25:43;;;;;;;1.00;0.68;;;;;;;;;;5003290;28;20530;-75
2023/06/09 13:28:10;;;;;;;0.60;0.60;;;;;;;;;;5013511;28;20058;-75
2023/06/09 13:30:37;;;;;;;1.00;0.70;;;;;;;;;;5021633;28;20108;-76
2023/06/09 13:33:05;;;;;;;0.90;0.60;;;;;;;;;;5020660;28;20065;-75
2023/06/09 13:35:33;;;;;;;0.70;0.60;;;;;;;;;;5018088;28;20508;-76
2023/06/09 13:38:00;;;;;;;1.02;0.60;;;;;;;;;;5022603;28;20046;-76
2023/06/09 13:40:27;;;;;;;0.57;0.45;;;;;;;;;;5022702;28;20061;-75
2023/06/09 13:42:53;;;;;;;1.30;0.70;;;;;;;;;;5021859;28;20057;-75
2023/06/09 13:45:21;;;;;;;1.27;0.77;;;;;;;;;;5017871;28;20054;-75
2023/06/09 13:47:47;;;;;;;1.33;0.65;;;;;;;;;;5022439;28;20100;-75
2023/06/09 13:50:14;;;;;;;0.57;0.45;;;;;;;;;;5022906;28;20085;-75
2023/06/09 13:52:42;;;;;;;1.13;0.73;;;;;;;;;;5022892;28;20077;-75
2023/06/09 13:55:10;;;;;;;0.60;0.40;;;;;;;;;;5019947;28;20057;-75
2023/06/09 13:57:37;;;;;;;2.72;0.90;;;;;;;;;;5020187;28;20088;-75
2023/06/09 14:00:04;;;;;;;1.10;0.80;;;;;;;;;;5024402;28;20054;-75
2023/06/09 14:02:31;;;;;;;1.00;0.60;;;;;;;;;;5025657;28;20575;-75
2023/06/09 14:05:00;;;;;;;0.40;0.40;;;;;;;;;;5021564;28;20065;-75
2023/06/09 14:07:27;;;;;;;1.27;0.60;;;;;;;;;;5023380;28;20096;-75
2023/06/09 14:09:54;;;;;;;1.67;0.68;;;;;;;;;;5025243;28;20641;-75
2023/06/09 14:12:21;;;;;;;0.90;0.70;;;;;;;;;;5025696;28;20124;-75
2023/06/09 14:14:48;;;;;;;0.85;0.60;;;;;;;;;;5021886;28;20058;-75
2023/06/09 14:17:14;;;;;;;0.88;0.52;;;;;;;;;;5026045;28;20539;-75
2023/06/09 14:19:41;;;;;;;1.58;0.95;;;;;;;;;;5024503;28;20136;-75
2023/06/09 14:22:07;;;;;;;0.40;0.40;;;;;;;;;;5026634;28;20054;-75
2023/06/09 14:24:34;;;;;;;0.60;0.50;;;;;;;;;;5023396;28;20058;-75
2023/06/09 14:27:02;;;;;;;0.88;0.77;;;;;;;;;;5025680;28;20050;-75
2023/06/09 14:29:29;;;;;;;0.47;0.40;;;;;;;;;;5025438;28;20579;-76
2023/06/09 14:31:55;;;;;;;2.97;0.90;;;;;;;;;;5025853;28;20060;-75
2023/06/09 14:34:22;;;;;;;0.40;0.40;;;;;;;;;;5021449;28;20050;-75
2023/06/09 14:36:48;;;;;;;0.60;0.50;;;;;;;;;;5022514;28;20646;-76
2023/06/09 14:39:15;;;;;;;1.38;0.95;;;;;;;;;;5023492;28;20069;-76
2023/06/09 14:41:41;;;;;;;0.77;0.50;;;;;;;;;;5025445;28;20050;-75
2023/06/09 14:44:08;;;;;;;0.68;0.52;;;;;;;;;;5025613;28;20104;-76
2023/06/09 14:46:34;;;;;;;1.50;0.90;;;;;;;;;;5022313;28;20050;-75
2023/06/09 14:49:01;;;;;;;0.60;0.50;;;;;;;;;;5024686;28;20104;-76
2023/06/09 14:51:27;;;;;;;0.77;0.68;;;;;;;;;;5025044;28;20456;-76